createdAt,value
2023-03-27T00:01:12.381Z,8.60
2023-03-27T00:03:39.691Z,8.70
2023-03-27T00:06:15.496Z,8.70
2023-03-27T00:08:44.089Z,8.80
2023-03-27T00:11:11.035Z,8.80
2023-03-27T00:13:49.908Z,8.80
2023-03-27T00:16:22.696Z,8.80
2023-03-27T00:18:49.241Z,8.70
2023-03-27T00:21:15.854Z,8.80
2023-03-27T00:23:42.420Z,8.70
2023-03-27T00:26:09.917Z,8.70
2023-03-27T00:28:36.446Z,8.70
2023-03-27T00:31:03.168Z,8.70
2023-03-27T00:33:29.769Z,8.80
2023-03-27T00:35:56.329Z,8.80
2023-03-27T00:38:23.664Z,8.80
2023-03-27T00:40:52.726Z,8.70
2023-03-27T00:43:35.185Z,8.60
2023-03-27T00:46:24.726Z,8.60
2023-03-27T00:48:52.259Z,8.50
2023-03-27T00:51:22.103Z,8.50
2023-03-27T00:53:50.563Z,8.50
2023-03-27T00:56:17.577Z,8.60
2023-03-27T00:58:52.892Z,8.50
2023-03-27T01:01:21.961Z,8.40
2023-03-27T01:03:50.639Z,8.50
2023-03-27T01:06:19.104Z,8.50
2023-03-27T01:08:46.873Z,8.50
2023-03-27T01:12:50.133Z,8.50
2023-03-27T01:15:48.317Z,8.50
2023-03-27T01:18:55.855Z,8.40
2023-03-27T01:24:47.871Z,8.40
2023-03-27T01:29:24.538Z,8.30
2023-03-27T01:34:15.632Z,8.30
2023-03-27T01:38:57.653Z,8.30
2023-03-27T01:41:35.445Z,8.30
2023-03-27T01:44:26.500Z,8.20
2023-03-27T01:50:18.251Z,8.10
2023-03-27T01:54:28.954Z,8.00
2023-03-27T01:57:04.435Z,8.00
2023-03-27T01:59:39.254Z,7.90
2023-03-27T02:02:16.567Z,7.90
2023-03-27T02:05:17.288Z,7.90
2023-03-27T02:07:53.241Z,7.80
2023-03-27T02:10:31.490Z,7.80
2023-03-27T02:13:12.213Z,7.90
2023-03-27T02:15:42.924Z,7.90
2023-03-27T02:18:18.394Z,7.90
2023-03-27T02:20:45.164Z,7.80
2023-03-27T02:23:12.225Z,7.80
2023-03-27T02:25:44.653Z,7.80
2023-03-27T02:29:58.723Z,7.80
2023-03-27T02:34:16.927Z,7.80
2023-03-27T02:38:51.701Z,7.80
2023-03-27T02:42:16.353Z,7.70
2023-03-27T02:46:39.507Z,7.60
2023-03-27T02:49:16.685Z,7.60
2023-03-27T02:52:01.563Z,7.70
2023-03-27T02:54:37.367Z,7.70
2023-03-27T02:57:14.777Z,7.70
2023-03-27T02:59:48.410Z,7.70
2023-03-27T03:02:23.973Z,7.70
2023-03-27T03:05:05.380Z,7.70
2023-03-27T03:07:33.908Z,7.60
2023-03-27T03:10:00.752Z,7.60
2023-03-27T03:12:27.218Z,7.60
2023-03-27T03:14:53.693Z,7.80
2023-03-27T03:17:20.795Z,7.60
2023-03-27T03:19:48.670Z,7.50
2023-03-27T03:22:15.196Z,7.50
2023-03-27T03:24:42.872Z,7.50
2023-03-27T03:27:09.998Z,7.50
2023-03-27T03:29:36.733Z,7.50
2023-03-27T03:32:06.861Z,7.50
2023-03-27T03:34:33.484Z,7.30
2023-03-27T03:37:00.705Z,7.30
2023-03-27T03:39:27.229Z,7.30
2023-03-27T03:41:55.651Z,7.30
2023-03-27T03:44:22.137Z,7.30
2023-03-27T03:46:48.612Z,7.20
2023-03-27T03:49:15.260Z,7.20
2023-03-27T03:51:41.739Z,7.20
2023-03-27T03:54:08.598Z,7.20
2023-03-27T03:56:36.443Z,7.20
2023-03-27T03:59:02.986Z,7.30
2023-03-27T04:01:29.514Z,7.30
2023-03-27T04:03:56.170Z,7.30
2023-03-27T04:06:25.514Z,7.20
2023-03-27T04:08:52.898Z,7.20
2023-03-27T04:11:19.787Z,7.20
2023-03-27T04:13:46.284Z,7.20
2023-03-27T04:16:12.823Z,7.20
2023-03-27T04:18:40.435Z,7.10
2023-03-27T04:21:15.127Z,7.10
2023-03-27T04:23:50.498Z,7.00
2023-03-27T04:26:19.133Z,7.00
2023-03-27T04:28:46.420Z,7.00
2023-03-27T04:31:13.446Z,7.00
2023-03-27T04:33:45.683Z,7.00
2023-03-27T04:36:15.712Z,7.00
2023-03-27T04:38:42.466Z,7.00
2023-03-27T04:41:09.913Z,7.00
2023-03-27T04:43:39.532Z,7.10
2023-03-27T04:46:07.455Z,7.10
2023-03-27T04:48:37.568Z,7.10
2023-03-27T04:51:06.085Z,6.90
2023-03-27T04:53:35.191Z,7.00
2023-03-27T04:56:01.994Z,7.00
2023-03-27T04:58:28.517Z,7.00
2023-03-27T05:00:55.671Z,6.90
2023-03-27T05:03:27.538Z,7.00
2023-03-27T05:05:54.004Z,7.10
2023-03-27T05:08:20.795Z,7.00
2023-03-27T05:10:47.563Z,7.10
2023-03-27T05:13:14.067Z,7.10
2023-03-27T05:15:40.893Z,7.10
2023-03-27T05:18:08.171Z,7.20
2023-03-27T05:20:36.076Z,7.20
2023-03-27T05:23:02.619Z,7.30
2023-03-27T05:25:30.466Z,7.30
2023-03-27T05:27:57.962Z,7.30
2023-03-27T05:30:26.478Z,7.20
2023-03-27T05:32:53.472Z,7.30
2023-03-27T05:35:22.938Z,7.30
2023-03-27T05:37:52.674Z,7.30
2023-03-27T05:40:24.664Z,7.30
2023-03-27T05:42:52.982Z,7.30
2023-03-27T05:45:23.694Z,7.30
2023-03-27T05:47:55.914Z,7.20
2023-03-27T05:50:26.337Z,7.30
2023-03-27T05:52:58.547Z,7.40
2023-03-27T05:55:27.868Z,7.40
2023-03-27T05:57:54.771Z,7.50
2023-03-27T06:00:25.015Z,7.50
2023-03-27T06:03:00.748Z,7.60
2023-03-27T06:05:29.075Z,7.60
2023-03-27T06:07:58.659Z,7.70
2023-03-27T06:10:27.621Z,7.70
2023-03-27T06:13:08.004Z,7.60
2023-03-27T06:15:38.781Z,7.70
2023-03-27T06:18:05.398Z,7.70
2023-03-27T06:20:34.478Z,7.80
2023-03-27T06:23:02.806Z,7.80
2023-03-27T06:25:33.727Z,7.70
2023-03-27T06:28:03.879Z,7.80
2023-03-27T06:30:30.490Z,7.90
2023-03-27T06:32:59.366Z,8.00
2023-03-27T06:35:30.247Z,8.10
2023-03-27T06:37:58.405Z,8.20
2023-03-27T06:40:28.243Z,8.20
2023-03-27T06:43:07.723Z,8.40
2023-03-27T06:45:37.873Z,8.40
2023-03-27T06:48:16.201Z,8.50
2023-03-27T06:50:49.313Z,8.70
2023-03-27T06:53:26.471Z,8.80
2023-03-27T06:55:54.927Z,8.80
2023-03-27T06:58:21.497Z,8.80
2023-03-27T07:00:49.806Z,8.80
2023-03-27T07:03:17.366Z,9.10
2023-03-27T07:05:43.892Z,9.10
2023-03-27T07:10:43.988Z,9.20
2023-03-27T07:13:10.823Z,9.30
2023-03-27T07:15:37.373Z,9.30
2023-03-27T07:18:06.350Z,9.30
2023-03-27T07:20:34.397Z,9.50
2023-03-27T07:23:01.966Z,9.60
2023-03-27T07:25:41.065Z,9.90
2023-03-27T07:28:15.143Z,10.10
2023-03-27T07:30:41.933Z,10.30
2023-03-27T07:33:09.780Z,10.50
2023-03-27T07:35:45.020Z,10.70
2023-03-27T07:38:11.876Z,11.00
2023-03-27T07:40:40.619Z,11.20
2023-03-27T07:43:07.466Z,11.40
2023-03-27T07:45:35.718Z,11.50
2023-03-27T07:48:15.277Z,11.90
2023-03-27T07:50:42.798Z,12.20
2023-03-27T07:53:09.384Z,12.10
2023-03-27T07:55:36.978Z,12.30
2023-03-27T07:58:04.381Z,12.50
2023-03-27T08:00:31.817Z,12.40
2023-03-27T08:03:13.578Z,12.40
2023-03-27T08:05:40.184Z,12.30
2023-03-27T08:08:06.650Z,12.20
2023-03-27T08:10:33.253Z,12.10
2023-03-27T08:13:00.319Z,12.20
2023-03-27T08:15:27.014Z,12.10
2023-03-27T08:17:55.730Z,12.00
2023-03-27T08:20:23.309Z,12.00
2023-03-27T08:22:52.822Z,12.10
2023-03-27T08:25:21.720Z,12.20
2023-03-27T08:27:48.420Z,12.20
2023-03-27T08:30:16.899Z,12.20
2023-03-27T08:32:44.173Z,12.40
2023-03-27T08:35:11.391Z,12.60
2023-03-27T08:37:38.213Z,12.60
2023-03-27T08:40:12.392Z,12.40
2023-03-27T08:42:45.459Z,12.40
2023-03-27T08:45:40.370Z,12.70
2023-03-27T08:48:21.856Z,13.10
2023-03-27T08:51:11.492Z,13.30
2023-03-27T08:53:55.657Z,13.30
2023-03-27T08:56:26.077Z,13.60
2023-03-27T08:58:53.417Z,13.60
2023-03-27T09:02:06.066Z,13.50
2023-03-27T09:05:09.111Z,13.50
2023-03-27T09:08:09.581Z,12.80
2023-03-27T09:11:21.869Z,12.70
2023-03-27T09:13:51.652Z,12.50
2023-03-27T09:16:33.421Z,12.40
2023-03-27T09:20:40.042Z,12.40
2023-03-27T09:23:23.925Z,12.10
2023-03-27T09:25:58.802Z,12.10
2023-03-27T09:28:39.425Z,12.30
2023-03-27T09:32:27.619Z,12.30
2023-03-27T09:35:00.200Z,12.40
2023-03-27T09:37:27.542Z,12.50
2023-03-27T09:39:58.035Z,12.70
2023-03-27T09:42:32.724Z,13.10
2023-03-27T09:45:05.590Z,13.60
2023-03-27T09:47:59.672Z,14.00
2023-03-27T09:50:43.623Z,14.00
2023-03-27T09:53:18.313Z,13.90
2023-03-27T09:55:57.611Z,13.90
2023-03-27T09:58:40.484Z,13.80
2023-03-27T10:01:27.174Z,13.70
2023-03-27T10:03:58.298Z,13.40
2023-03-27T10:06:38.621Z,13.50
2023-03-27T10:09:33.514Z,13.50
2023-03-27T10:12:24.158Z,13.40
2023-03-27T10:14:52.695Z,13.30
2023-03-27T10:17:52.712Z,13.00
2023-03-27T10:20:21.669Z,12.10
2023-03-27T10:23:08.721Z,11.20
2023-03-27T10:25:49.990Z,10.70
2023-03-27T10:28:35.337Z,10.40
2023-03-27T10:31:23.614Z,10.50
2023-03-27T10:33:50.210Z,10.40
2023-03-27T10:36:18.021Z,10.70
2023-03-27T10:39:01.572Z,10.90
2023-03-27T10:41:29.323Z,11.10
2023-03-27T10:43:57.359Z,11.60
2023-03-27T10:46:28.220Z,11.90
2023-03-27T10:50:52.413Z,12.20
2023-03-27T10:53:43.830Z,12.50
2023-03-27T10:56:31.457Z,12.50
2023-03-27T10:59:31.150Z,12.50
2023-03-27T11:04:44.182Z,12.20
2023-03-27T11:07:23.051Z,12.40
2023-03-27T11:10:11.434Z,12.30
2023-03-27T11:12:42.054Z,11.90
2023-03-27T11:15:26.909Z,11.90
2023-03-27T11:18:02.557Z,12.00
2023-03-27T11:20:51.135Z,12.10
2023-03-27T11:23:32.234Z,12.20
2023-03-27T11:26:03.255Z,12.30
2023-03-27T11:29:01.222Z,11.90
2023-03-27T11:31:47.587Z,11.70
2023-03-27T11:34:41.783Z,11.90
2023-03-27T11:37:30.022Z,11.90
2023-03-27T11:40:10.560Z,11.90
2023-03-27T11:42:44.520Z,11.90
2023-03-27T11:45:20.392Z,12.40
2023-03-27T11:48:44.713Z,11.70
2023-03-27T11:54:36.975Z,11.60
2023-03-27T11:57:30.018Z,11.10
2023-03-27T12:00:41.868Z,10.90
2023-03-27T12:07:12.332Z,10.90
2023-03-27T12:10:15.369Z,10.80
2023-03-27T12:15:01.947Z,10.70
2023-03-27T12:18:06.753Z,10.90
2023-03-27T12:22:51.007Z,11.10
2023-03-27T12:28:26.054Z,11.20
2023-03-27T12:31:43.960Z,11.00
2023-03-27T12:36:48.531Z,10.90
2023-03-27T12:39:24.272Z,11.20
2023-03-27T12:41:51.272Z,10.90
2023-03-27T12:44:28.493Z,10.30
2023-03-27T12:47:23.661Z,10.30
2023-03-27T12:50:08.717Z,10.40
2023-03-27T12:52:37.857Z,10.50
2023-03-27T12:56:26.071Z,10.50
2023-03-27T12:58:55.199Z,10.00
2023-03-27T13:02:16.956Z,10.20
2023-03-27T13:05:36.925Z,10.30
2023-03-27T13:15:42.505Z,9.90
2023-03-27T13:19:59.749Z,9.40
2023-03-27T13:23:14.279Z,9.50
2023-03-27T13:28:31.656Z,9.40
2023-03-27T13:31:00.960Z,9.50
2023-03-27T13:36:03.151Z,10.00
2023-03-27T13:40:53.712Z,10.10
2023-03-27T13:43:34.505Z,9.60
2023-03-27T13:46:06.956Z,9.40
2023-03-27T13:49:34.210Z,9.10
2023-03-27T13:55:27.374Z,9.10
2023-03-27T13:58:39.279Z,9.10
2023-03-27T14:01:38.926Z,9.50
2023-03-27T14:05:09.269Z,9.50
2023-03-27T14:14:41.772Z,9.50
2023-03-27T14:17:50.512Z,9.50
2023-03-27T14:20:31.137Z,8.70
2023-03-27T14:23:12.537Z,8.30
2023-03-27T14:25:55.705Z,8.50
2023-03-27T14:28:50.706Z,8.70
2023-03-27T14:31:19.675Z,9.00
2023-03-27T14:34:24.085Z,9.00
2023-03-27T14:36:51.496Z,9.10
2023-03-27T14:39:22.757Z,9.20
2023-03-27T14:42:15.705Z,8.90
2023-03-27T14:44:42.186Z,9.00
2023-03-27T14:47:15.500Z,9.20
2023-03-27T14:49:53.188Z,9.10
2023-03-27T14:52:29.644Z,9.10
2023-03-27T14:54:58.266Z,9.10
2023-03-27T14:57:26.585Z,8.80
2023-03-27T14:59:54.578Z,8.50
2023-03-27T15:02:34.004Z,8.50
2023-03-27T15:05:21.802Z,8.50
2023-03-27T15:07:49.958Z,8.60
2023-03-27T15:10:30.806Z,8.60
2023-03-27T15:12:57.639Z,8.50
2023-03-27T15:15:38.126Z,8.40
2023-03-27T15:18:17.083Z,8.30
2023-03-27T15:20:45.168Z,8.30
2023-03-27T15:23:59.692Z,8.10
2023-03-27T15:26:32.353Z,8.00
2023-03-27T15:29:52.633Z,8.00
2023-03-27T15:32:21.407Z,8.00
2023-03-27T15:34:57.212Z,7.90
2023-03-27T15:37:29.984Z,7.80
2023-03-27T15:40:40.258Z,7.80
2023-03-27T15:43:30.187Z,7.70
2023-03-27T15:46:12.281Z,7.70
2023-03-27T15:48:45.175Z,7.70
2023-03-27T15:52:30.631Z,7.90
2023-03-27T15:54:58.548Z,8.00
2023-03-27T15:57:30.515Z,8.00
2023-03-27T16:00:13.853Z,8.10
2023-03-27T16:02:40.947Z,8.00
2023-03-27T16:05:07.762Z,8.10
2023-03-27T16:07:46.608Z,8.20
2023-03-27T16:10:28.254Z,8.00
2023-03-27T16:13:02.209Z,7.90
2023-03-27T16:15:41.008Z,7.60
2023-03-27T16:18:40.806Z,7.40
2023-03-27T16:21:12.560Z,7.30
2023-03-27T16:23:40.184Z,7.20
2023-03-27T16:26:12.496Z,7.10
2023-03-27T16:28:40.198Z,7.00
2023-03-27T16:31:16.718Z,7.00
2023-03-27T16:33:44.503Z,6.90
2023-03-27T16:36:29.036Z,7.10
2023-03-27T16:38:55.926Z,7.20
2023-03-27T16:41:22.513Z,7.10
2023-03-27T16:43:49.422Z,7.00
2023-03-27T16:46:29.017Z,6.80
2023-03-27T16:48:56.141Z,6.80
2023-03-27T16:51:26.433Z,6.90
2023-03-27T16:53:53.807Z,6.90
2023-03-27T16:56:21.385Z,6.90
2023-03-27T16:58:48.262Z,6.90
2023-03-27T17:01:14.844Z,6.90
2023-03-27T17:03:41.565Z,6.90
2023-03-27T17:06:10.698Z,6.80
2023-03-27T17:08:37.835Z,6.70
2023-03-27T17:11:11.404Z,6.50
2023-03-27T17:13:40.273Z,6.50
2023-03-27T17:16:08.982Z,6.30
2023-03-27T17:18:35.736Z,6.00
2023-03-27T17:21:02.227Z,6.00
2023-03-27T17:23:28.719Z,5.70
2023-03-27T17:25:59.505Z,5.60
2023-03-27T17:28:26.008Z,5.40
2023-03-27T17:31:04.534Z,5.50
2023-03-27T17:33:32.685Z,5.50
2023-03-27T17:35:59.424Z,5.50
2023-03-27T17:38:26.094Z,5.50
2023-03-27T17:40:52.602Z,5.50
2023-03-27T17:43:19.189Z,5.60
2023-03-27T17:45:47.156Z,5.60
2023-03-27T17:48:13.694Z,5.60
2023-03-27T17:50:40.184Z,5.60
2023-03-27T17:53:07.151Z,5.60
2023-03-27T17:55:37.131Z,5.50
2023-03-27T17:58:09.345Z,5.50
2023-03-27T18:00:40.929Z,5.40
2023-03-27T18:03:10.615Z,5.30
2023-03-27T18:05:39.567Z,5.40
2023-03-27T18:08:08.808Z,5.40
2023-03-27T18:10:47.760Z,5.40
2023-03-27T18:13:15.757Z,5.50
2023-03-27T18:15:42.429Z,5.50
2023-03-27T18:18:08.995Z,5.50
2023-03-27T18:20:35.783Z,5.60
2023-03-27T18:23:02.514Z,5.60
2023-03-27T18:25:29.605Z,5.60
2023-03-27T18:27:56.116Z,5.60
2023-03-27T18:30:23.178Z,5.60
2023-03-27T18:32:50.042Z,5.60
2023-03-27T18:35:19.268Z,5.60
2023-03-27T18:37:46.256Z,5.70
2023-03-27T18:40:16.673Z,5.70
2023-03-27T18:42:43.284Z,5.60
2023-03-27T18:45:12.601Z,5.60
2023-03-27T18:47:40.793Z,5.60
2023-03-27T18:50:08.705Z,5.50
2023-03-27T18:52:35.326Z,5.50
2023-03-27T18:55:01.812Z,5.60
2023-03-27T18:57:28.357Z,5.60
2023-03-27T18:59:54.914Z,5.60
2023-03-27T19:02:24.651Z,5.60
2023-03-27T19:04:52.479Z,5.60
2023-03-27T19:07:19.906Z,5.60
2023-03-27T19:09:46.405Z,5.60
2023-03-27T19:12:13.079Z,5.60
2023-03-27T19:14:40.855Z,5.60
2023-03-27T19:17:07.377Z,5.70
2023-03-27T19:19:33.981Z,5.70
2023-03-27T19:22:00.483Z,5.70
2023-03-27T19:24:27.063Z,5.80
2023-03-27T19:26:53.570Z,5.90
2023-03-27T19:29:20.068Z,5.90
2023-03-27T19:31:46.543Z,5.90
2023-03-27T19:34:13.084Z,5.80
2023-03-27T19:36:39.685Z,5.80
2023-03-27T19:39:06.325Z,5.80
2023-03-27T19:41:32.843Z,5.80
2023-03-27T19:44:00.517Z,5.80
2023-03-27T19:46:28.418Z,5.80
2023-03-27T19:48:55.076Z,5.80
2023-03-27T19:51:22.114Z,5.80
2023-03-27T19:53:48.619Z,5.60
2023-03-27T19:56:15.405Z,5.60
2023-03-27T19:58:42.013Z,5.60
2023-03-27T20:01:08.588Z,5.60
2023-03-27T20:03:37.286Z,5.50
2023-03-27T20:06:09.724Z,5.40
2023-03-27T20:08:38.821Z,5.40
2023-03-27T20:11:06.169Z,5.50
2023-03-27T20:13:37.297Z,5.40
2023-03-27T20:16:13.667Z,5.40
2023-03-27T20:18:41.104Z,5.30
2023-03-27T20:21:12.721Z,5.30
2023-03-27T20:23:41.089Z,5.30
2023-03-27T20:26:08.464Z,5.30
2023-03-27T20:28:35.198Z,5.30
2023-03-27T20:31:05.860Z,5.30
2023-03-27T20:33:32.621Z,5.30
2023-03-27T20:35:59.455Z,5.30
2023-03-27T20:38:30.661Z,5.30
2023-03-27T20:40:57.413Z,5.30
2023-03-27T20:43:26.437Z,5.40
2023-03-27T20:45:54.170Z,5.40
2023-03-27T20:48:21.235Z,5.40
2023-03-27T20:50:52.415Z,5.40
2023-03-27T20:53:33.179Z,5.30
2023-03-27T20:56:05.609Z,5.40
2023-03-27T20:58:35.720Z,5.30
2023-03-27T21:01:04.323Z,5.30
2023-03-27T21:03:36.792Z,5.30
2023-03-27T21:06:13.625Z,5.20
2023-03-27T21:08:43.288Z,5.20
2023-03-27T21:11:09.977Z,5.20
2023-03-27T21:13:36.574Z,5.20
2023-03-27T21:16:03.945Z,5.10
2023-03-27T21:18:30.786Z,5.20
2023-03-27T21:20:57.373Z,5.20
2023-03-27T21:23:24.221Z,5.20
2023-03-27T21:25:50.974Z,5.20
2023-03-27T21:28:17.841Z,5.10
2023-03-27T21:30:46.718Z,4.90
2023-03-27T21:33:15.880Z,4.80
2023-03-27T21:35:44.975Z,4.80
2023-03-27T21:38:13.020Z,4.90
2023-03-27T21:40:40.451Z,4.90
2023-03-27T21:43:08.120Z,4.80
2023-03-27T21:45:35.887Z,4.70
2023-03-27T21:48:04.941Z,4.70
2023-03-27T21:50:31.481Z,4.60
2023-03-27T21:52:57.971Z,4.60
2023-03-27T21:55:24.558Z,4.70
2023-03-27T21:57:51.582Z,4.60
2023-03-27T22:00:19.298Z,4.60
2023-03-27T22:02:45.849Z,4.40
2023-03-27T22:05:12.477Z,4.20
2023-03-27T22:07:39.003Z,4.20
2023-03-27T22:10:06.600Z,4.30
2023-03-27T22:12:37.344Z,4.40
2023-03-27T22:15:06.735Z,4.40
2023-03-27T22:17:36.205Z,4.50
2023-03-27T22:20:05.502Z,4.50
2023-03-27T22:22:36.985Z,4.50
2023-03-27T22:25:04.886Z,4.60
2023-03-27T22:27:31.742Z,4.50
2023-03-27T22:29:58.289Z,4.50
2023-03-27T22:32:24.843Z,4.50
2023-03-27T22:34:51.343Z,4.50
2023-03-27T22:37:19.400Z,4.50
2023-03-27T22:39:46.232Z,4.60
2023-03-27T22:42:12.806Z,4.60
2023-03-27T22:44:41.773Z,4.60
2023-03-27T22:47:08.387Z,4.60
2023-03-27T22:49:35.578Z,4.60
2023-03-27T22:52:04.184Z,4.50
2023-03-27T22:54:30.754Z,4.40
2023-03-27T22:57:00.582Z,4.20
2023-03-27T22:59:27.163Z,4.00
2023-03-27T23:01:53.686Z,4.00
2023-03-27T23:04:20.291Z,3.90
2023-03-27T23:06:47.435Z,3.80
2023-03-27T23:09:14.365Z,3.70
2023-03-27T23:11:40.947Z,3.60
2023-03-27T23:14:07.459Z,3.60
2023-03-27T23:16:33.942Z,3.50
2023-03-27T23:19:00.430Z,3.40
2023-03-27T23:21:26.972Z,3.30
2023-03-27T23:23:53.621Z,3.30
2023-03-27T23:26:20.506Z,3.30
2023-03-27T23:28:47.001Z,3.20
2023-03-27T23:31:19.290Z,3.30
2023-03-27T23:33:50.335Z,3.30
2023-03-27T23:36:23.679Z,3.30
2023-03-27T23:38:51.167Z,3.40
2023-03-27T23:41:19.283Z,3.50
2023-03-27T23:43:46.046Z,3.50
2023-03-27T23:46:12.732Z,3.60
2023-03-27T23:48:41.725Z,3.70
2023-03-27T23:51:10.701Z,3.80
2023-03-27T23:53:37.315Z,3.90
2023-03-27T23:56:04.866Z,3.80
2023-03-27T23:58:31.746Z,3.70
